sensor_id;sensor_type;location;lat;lon;timestamp;P1;durP1;ratioP1;P2;durP2;ratioP2
9186;SDS011;7273;48.902;9.410;2022-12-07T00:01:29;5.50;;;4.97;;
9186;SDS011;7273;48.902;9.410;2022-12-07T00:03:56;6.25;;;5.63;;
9186;SDS011;7273;48.902;9.410;2022-12-07T00:06:29;6.15;;;5.53;;
9186;SDS011;7273;48.902;9.410;2022-12-07T00:08:59;7.55;;;6.07;;
9186;SDS011;7273;48.902;9.410;2022-12-07T00:11:25;6.90;;;5.80;;
9186;SDS011;7273;48.902;9.410;2022-12-07T00:13:52;4.57;;;3.97;;
9186;SDS011;7273;48.902;9.410;2022-12-07T00:16:20;3.95;;;3.47;;
9186;SDS011;7273;48.902;9.410;2022-12-07T00:18:47;5.13;;;4.65;;
9186;SDS011;7273;48.902;9.410;2022-12-07T00:21:13;4.47;;;4.15;;
9186;SDS011;7273;48.902;9.410;2022-12-07T00:23:43;5.82;;;5.30;;
9186;SDS011;7273;48.902;9.410;2022-12-07T00:26:13;5.45;;;4.97;;
9186;SDS011;7273;48.902;9.410;2022-12-07T00:28:50;4.63;;;3.63;;
9186;SDS011;7273;48.902;9.410;2022-12-07T00:31:18;7.78;;;4.63;;
9186;SDS011;7273;48.902;9.410;2022-12-07T00:33:45;4.32;;;3.90;;
9186;SDS011;7273;48.902;9.410;2022-12-07T00:36:12;3.25;;;2.97;;
9186;SDS011;7273;48.902;9.410;2022-12-07T00:38:39;5.55;;;4.07;;
9186;SDS011;7273;48.902;9.410;2022-12-07T00:41:10;3.17;;;2.90;;
9186;SDS011;7273;48.902;9.410;2022-12-07T00:43:37;2.80;;;2.60;;
9186;SDS011;7273;48.902;9.410;2022-12-07T00:46:04;5.70;;;5.22;;
9186;SDS011;7273;48.902;9.410;2022-12-07T00:48:29;5.45;;;3.95;;
9186;SDS011;7273;48.902;9.410;2022-12-07T00:50:55;4.05;;;3.65;;
9186;SDS011;7273;48.902;9.410;2022-12-07T00:53:21;3.90;;;3.55;;
9186;SDS011;7273;48.902;9.410;2022-12-07T00:55:46;4.55;;;3.92;;
9186;SDS011;7273;48.902;9.410;2022-12-07T00:58:12;4.13;;;3.70;;
9186;SDS011;7273;48.902;9.410;2022-12-07T01:00:39;2.97;;;2.65;;
9186;SDS011;7273;48.902;9.410;2022-12-07T01:03:06;3.03;;;2.45;;
9186;SDS011;7273;48.902;9.410;2022-12-07T01:05:33;2.38;;;2.17;;
9186;SDS011;7273;48.902;9.410;2022-12-07T01:07:59;2.38;;;2.17;;
9186;SDS011;7273;48.902;9.410;2022-12-07T01:10:25;5.57;;;3.50;;
9186;SDS011;7273;48.902;9.410;2022-12-07T01:12:50;1.67;;;1.58;;
9186;SDS011;7273;48.902;9.410;2022-12-07T01:15:16;5.30;;;2.97;;
9186;SDS011;7273;48.902;9.410;2022-12-07T01:17:41;3.15;;;2.30;;
9186;SDS011;7273;48.902;9.410;2022-12-07T01:20:07;3.70;;;3.28;;
9186;SDS011;7273;48.902;9.410;2022-12-07T01:22:36;3.03;;;2.78;;
9186;SDS011;7273;48.902;9.410;2022-12-07T01:25:03;2.67;;;2.47;;
9186;SDS011;7273;48.902;9.410;2022-12-07T01:27:29;5.00;;;3.80;;
9186;SDS011;7273;48.902;9.410;2022-12-07T01:29:55;2.85;;;2.65;;
9186;SDS011;7273;48.902;9.410;2022-12-07T01:32:20;3.67;;;3.38;;
9186;SDS011;7273;48.902;9.410;2022-12-07T01:34:47;4.95;;;4.10;;
9186;SDS011;7273;48.902;9.410;2022-12-07T01:37:13;3.92;;;3.28;;
9186;SDS011;7273;48.902;9.410;2022-12-07T01:39:38;3.38;;;3.08;;
9186;SDS011;7273;48.902;9.410;2022-12-07T01:42:04;6.53;;;3.97;;
9186;SDS011;7273;48.902;9.410;2022-12-07T01:44:30;5.40;;;4.93;;
9186;SDS011;7273;48.902;9.410;2022-12-07T01:46:58;2.88;;;2.63;;
9186;SDS011;7273;48.902;9.410;2022-12-07T01:52:22;3.65;;;3.08;;
9186;SDS011;7273;48.902;9.410;2022-12-07T01:54:46;6.82;;;5.90;;
9186;SDS011;7273;48.902;9.410;2022-12-07T01:57:14;6.43;;;4.70;;
9186;SDS011;7273;48.902;9.410;2022-12-07T01:59:42;6.38;;;5.75;;
9186;SDS011;7273;48.902;9.410;2022-12-07T02:02:12;5.22;;;4.78;;
9186;SDS011;7273;48.902;9.410;2022-12-07T02:04:44;6.28;;;5.68;;
9186;SDS011;7273;48.902;9.410;2022-12-07T02:07:11;5.80;;;5.30;;
9186;SDS011;7273;48.902;9.410;2022-12-07T02:09:37;6.20;;;5.72;;
9186;SDS011;7273;48.902;9.410;2022-12-07T02:12:02;5.80;;;5.25;;
9186;SDS011;7273;48.902;9.410;2022-12-07T02:14:28;7.72;;;7.00;;
9186;SDS011;7273;48.902;9.410;2022-12-07T02:24:54;11.98;;;10.90;;
9186;SDS011;7273;48.902;9.410;2022-12-07T02:30:31;13.23;;;11.98;;
9186;SDS011;7273;48.902;9.410;2022-12-07T02:33:00;9.93;;;9.07;;
9186;SDS011;7273;48.902;9.410;2022-12-07T02:35:35;10.68;;;9.55;;
9186;SDS011;7273;48.902;9.410;2022-12-07T02:43:16;11.90;;;10.32;;
9186;SDS011;7273;48.902;9.410;2022-12-07T02:45:48;12.55;;;11.38;;
9186;SDS011;7273;48.902;9.410;2022-12-07T02:48:16;11.50;;;10.55;;
9186;SDS011;7273;48.902;9.410;2022-12-07T02:50:48;11.02;;;10.05;;
9186;SDS011;7273;48.902;9.410;2022-12-07T02:56:03;12.07;;;10.80;;
9186;SDS011;7273;48.902;9.410;2022-12-07T02:59:02;13.50;;;12.27;;
9186;SDS011;7273;48.902;9.410;2022-12-07T03:07:18;7.47;;;6.88;;
9186;SDS011;7273;48.902;9.410;2022-12-07T03:12:18;9.23;;;7.43;;
9186;SDS011;7273;48.902;9.410;2022-12-07T03:17:25;18.13;;;16.42;;
9186;SDS011;7273;48.902;9.410;2022-12-07T03:19:55;12.02;;;10.98;;
9186;SDS011;7273;48.902;9.410;2022-12-07T03:22:23;11.35;;;10.43;;
9186;SDS011;7273;48.902;9.410;2022-12-07T03:24:55;11.02;;;10.07;;
9186;SDS011;7273;48.902;9.410;2022-12-07T03:27:25;10.65;;;9.63;;
9186;SDS011;7273;48.902;9.410;2022-12-07T03:29:59;10.10;;;9.15;;
9186;SDS011;7273;48.902;9.410;2022-12-07T03:32:30;11.18;;;10.23;;
9186;SDS011;7273;48.902;9.410;2022-12-07T03:38:08;10.00;;;9.18;;
9186;SDS011;7273;48.902;9.410;2022-12-07T03:40:43;8.32;;;7.65;;
9186;SDS011;7273;48.902;9.410;2022-12-07T03:45:42;16.80;;;15.25;;
9186;SDS011;7273;48.902;9.410;2022-12-07T03:48:22;9.98;;;9.15;;
9186;SDS011;7273;48.902;9.410;2022-12-07T03:57:03;11.88;;;10.75;;
9186;SDS011;7273;48.902;9.410;2022-12-07T03:59:30;10.18;;;9.23;;
9186;SDS011;7273;48.902;9.410;2022-12-07T04:01:57;7.57;;;6.55;;
9186;SDS011;7273;48.902;9.410;2022-12-07T04:04:27;6.78;;;6.18;;
9186;SDS011;7273;48.902;9.410;2022-12-07T04:06:53;5.82;;;5.25;;
9186;SDS011;7273;48.902;9.410;2022-12-07T04:09:19;5.65;;;5.13;;
9186;SDS011;7273;48.902;9.410;2022-12-07T04:11:44;5.05;;;4.65;;
9186;SDS011;7273;48.902;9.410;2022-12-07T04:14:10;5.03;;;4.55;;
9186;SDS011;7273;48.902;9.410;2022-12-07T04:19:10;5.63;;;5.13;;
9186;SDS011;7273;48.902;9.410;2022-12-07T04:21:35;6.65;;;6.05;;
9186;SDS011;7273;48.902;9.410;2022-12-07T04:24:01;7.35;;;6.72;;
9186;SDS011;7273;48.902;9.410;2022-12-07T04:26:26;8.40;;;7.70;;
9186;SDS011;7273;48.902;9.410;2022-12-07T04:28:52;5.40;;;4.93;;
9186;SDS011;7273;48.902;9.410;2022-12-07T04:31:18;6.90;;;5.68;;
9186;SDS011;7273;48.902;9.410;2022-12-07T04:33:43;5.60;;;5.10;;
9186;SDS011;7273;48.902;9.410;2022-12-07T04:36:09;5.30;;;4.90;;
9186;SDS011;7273;48.902;9.410;2022-12-07T04:38:34;10.68;;;5.97;;
9186;SDS011;7273;48.902;9.410;2022-12-07T04:41:04;6.38;;;5.55;;
9186;SDS011;7273;48.902;9.410;2022-12-07T04:43:31;4.18;;;3.83;;
9186;SDS011;7273;48.902;9.410;2022-12-07T04:45:56;5.78;;;5.05;;
9186;SDS011;7273;48.902;9.410;2022-12-07T04:48:21;4.85;;;4.43;;
9186;SDS011;7273;48.902;9.410;2022-12-07T04:50:47;5.05;;;4.53;;
9186;SDS011;7273;48.902;9.410;2022-12-07T04:53:14;4.78;;;4.38;;
9186;SDS011;7273;48.902;9.410;2022-12-07T04:55:40;4.80;;;4.32;;
9186;SDS011;7273;48.902;9.410;2022-12-07T04:58:05;4.85;;;4.32;;
9186;SDS011;7273;48.902;9.410;2022-12-07T05:00:31;5.03;;;3.97;;
9186;SDS011;7273;48.902;9.410;2022-12-07T05:02:56;4.97;;;3.67;;
9186;SDS011;7273;48.902;9.410;2022-12-07T05:05:22;3.80;;;3.45;;
9186;SDS011;7273;48.902;9.410;2022-12-07T05:07:47;4.85;;;3.92;;
9186;SDS011;7273;48.902;9.410;2022-12-07T05:10:12;5.13;;;3.80;;
9186;SDS011;7273;48.902;9.410;2022-12-07T05:12:38;3.53;;;3.22;;
9186;SDS011;7273;48.902;9.410;2022-12-07T05:15:04;11.05;;;6.20;;
9186;SDS011;7273;48.902;9.410;2022-12-07T05:17:29;4.43;;;3.13;;
9186;SDS011;7273;48.902;9.410;2022-12-07T05:19:55;3.15;;;2.88;;
9186;SDS011;7273;48.902;9.410;2022-12-07T05:22:20;4.32;;;3.97;;
9186;SDS011;7273;48.902;9.410;2022-12-07T05:24:46;5.25;;;4.72;;
9186;SDS011;7273;48.902;9.410;2022-12-07T05:27:11;3.58;;;2.92;;
9186;SDS011;7273;48.902;9.410;2022-12-07T05:29:37;3.22;;;2.80;;
9186;SDS011;7273;48.902;9.410;2022-12-07T05:32:02;2.85;;;2.55;;
9186;SDS011;7273;48.902;9.410;2022-12-07T05:34:28;3.63;;;2.90;;
9186;SDS011;7273;48.902;9.410;2022-12-07T05:36:53;3.92;;;3.45;;
9186;SDS011;7273;48.902;9.410;2022-12-07T05:39:19;3.35;;;3.03;;
9186;SDS011;7273;48.902;9.410;2022-12-07T05:41:44;3.95;;;3.53;;
9186;SDS011;7273;48.902;9.410;2022-12-07T05:44:28;3.33;;;3.03;;
9186;SDS011;7273;48.902;9.410;2022-12-07T05:46:54;3.05;;;2.75;;
9186;SDS011;7273;48.902;9.410;2022-12-07T05:49:19;3.65;;;3.38;;
9186;SDS011;7273;48.902;9.410;2022-12-07T05:51:45;2.90;;;2.70;;
9186;SDS011;7273;48.902;9.410;2022-12-07T05:54:10;3.78;;;3.17;;
9186;SDS011;7273;48.902;9.410;2022-12-07T05:56:35;3.72;;;3.42;;
9186;SDS011;7273;48.902;9.410;2022-12-07T05:59:01;4.80;;;4.32;;
9186;SDS011;7273;48.902;9.410;2022-12-07T06:01:45;4.63;;;4.22;;
9186;SDS011;7273;48.902;9.410;2022-12-07T06:04:11;4.35;;;4.00;;
9186;SDS011;7273;48.902;9.410;2022-12-07T06:06:36;5.28;;;4.85;;
9186;SDS011;7273;48.902;9.410;2022-12-07T06:09:02;9.80;;;5.25;;
9186;SDS011;7273;48.902;9.410;2022-12-07T06:11:28;8.10;;;5.50;;
9186;SDS011;7273;48.902;9.410;2022-12-07T06:14:12;5.57;;;4.88;;
9186;SDS011;7273;48.902;9.410;2022-12-07T06:16:37;5.03;;;4.30;;
9186;SDS011;7273;48.902;9.410;2022-12-07T06:19:03;4.80;;;4.20;;
9186;SDS011;7273;48.902;9.410;2022-12-07T06:21:29;4.15;;;3.25;;
9186;SDS011;7273;48.902;9.410;2022-12-07T06:23:54;5.57;;;1.95;;
9186;SDS011;7273;48.902;9.410;2022-12-07T06:26:20;7.18;;;3.47;;
9186;SDS011;7273;48.902;9.410;2022-12-07T06:28:46;3.25;;;1.50;;
9186;SDS011;7273;48.902;9.410;2022-12-07T06:31:12;1.75;;;0.90;;
9186;SDS011;7273;48.902;9.410;2022-12-07T06:33:37;6.32;;;2.58;;
9186;SDS011;7273;48.902;9.410;2022-12-07T06:36:03;1.50;;;0.73;;
9186;SDS011;7273;48.902;9.410;2022-12-07T06:38:28;3.63;;;1.75;;
9186;SDS011;7273;48.902;9.410;2022-12-07T06:40:54;4.72;;;2.60;;
9186;SDS011;7273;48.902;9.410;2022-12-07T06:43:19;7.28;;;3.38;;
9186;SDS011;7273;48.902;9.410;2022-12-07T06:45:45;11.95;;;1.77;;
9186;SDS011;7273;48.902;9.410;2022-12-07T06:48:11;2.45;;;1.00;;
9186;SDS011;7273;48.902;9.410;2022-12-07T06:50:36;3.63;;;1.80;;
9186;SDS011;7273;48.902;9.410;2022-12-07T06:53:01;2.60;;;1.17;;
9186;SDS011;7273;48.902;9.410;2022-12-07T06:55:27;6.75;;;2.10;;
9186;SDS011;7273;48.902;9.410;2022-12-07T06:57:52;3.65;;;1.35;;
9186;SDS011;7273;48.902;9.410;2022-12-07T07:00:18;3.10;;;1.38;;
9186;SDS011;7273;48.902;9.410;2022-12-07T07:02:44;4.75;;;2.03;;
9186;SDS011;7273;48.902;9.410;2022-12-07T07:05:10;2.40;;;1.27;;
9186;SDS011;7273;48.902;9.410;2022-12-07T07:07:35;1.40;;;0.75;;
9186;SDS011;7273;48.902;9.410;2022-12-07T07:10:00;3.58;;;2.05;;
9186;SDS011;7273;48.902;9.410;2022-12-07T07:12:26;3.75;;;1.77;;
9186;SDS011;7273;48.902;9.410;2022-12-07T07:14:51;3.67;;;1.42;;
9186;SDS011;7273;48.902;9.410;2022-12-07T07:17:17;4.00;;;1.90;;
9186;SDS011;7273;48.902;9.410;2022-12-07T07:19:42;2.45;;;1.42;;
9186;SDS011;7273;48.902;9.410;2022-12-07T07:22:08;1.85;;;1.05;;
9186;SDS011;7273;48.902;9.410;2022-12-07T07:24:33;4.07;;;1.95;;
9186;SDS011;7273;48.902;9.410;2022-12-07T07:26:59;2.28;;;0.98;;
9186;SDS011;7273;48.902;9.410;2022-12-07T07:29:24;3.30;;;1.17;;
9186;SDS011;7273;48.902;9.410;2022-12-07T07:31:50;2.97;;;1.38;;
9186;SDS011;7273;48.902;9.410;2022-12-07T07:34:15;2.97;;;1.40;;
9186;SDS011;7273;48.902;9.410;2022-12-07T07:36:41;1.88;;;0.77;;
9186;SDS011;7273;48.902;9.410;2022-12-07T07:39:06;6.15;;;1.63;;
9186;SDS011;7273;48.902;9.410;2022-12-07T07:41:32;4.65;;;1.30;;
9186;SDS011;7273;48.902;9.410;2022-12-07T07:43:57;6.78;;;2.17;;
9186;SDS011;7273;48.902;9.410;2022-12-07T07:46:22;3.10;;;1.70;;
9186;SDS011;7273;48.902;9.410;2022-12-07T07:48:48;4.03;;;1.55;;
9186;SDS011;7273;48.902;9.410;2022-12-07T07:51:13;4.00;;;1.13;;
9186;SDS011;7273;48.902;9.410;2022-12-07T07:53:39;5.03;;;1.80;;
9186;SDS011;7273;48.902;9.410;2022-12-07T07:56:04;4.55;;;1.80;;
9186;SDS011;7273;48.902;9.410;2022-12-07T07:58:30;2.43;;;1.50;;
9186;SDS011;7273;48.902;9.410;2022-12-07T08:00:55;3.67;;;1.67;;
9186;SDS011;7273;48.902;9.410;2022-12-07T08:03:21;3.90;;;1.45;;
9186;SDS011;7273;48.902;9.410;2022-12-07T08:05:46;3.00;;;1.48;;
9186;SDS011;7273;48.902;9.410;2022-12-07T08:08:12;3.22;;;1.13;;
9186;SDS011;7273;48.902;9.410;2022-12-07T08:10:37;3.42;;;1.50;;
9186;SDS011;7273;48.902;9.410;2022-12-07T08:13:03;3.05;;;1.38;;
9186;SDS011;7273;48.902;9.410;2022-12-07T08:15:39;3.25;;;1.08;;
9186;SDS011;7273;48.902;9.410;2022-12-07T08:18:06;2.10;;;0.95;;
9186;SDS011;7273;48.902;9.410;2022-12-07T08:20:33;4.55;;;1.85;;
9186;SDS011;7273;48.902;9.410;2022-12-07T08:22:59;2.92;;;1.35;;
9186;SDS011;7273;48.902;9.410;2022-12-07T08:25:25;4.57;;;1.88;;
9186;SDS011;7273;48.902;9.410;2022-12-07T08:27:51;2.42;;;1.42;;
9186;SDS011;7273;48.902;9.410;2022-12-07T08:30:17;4.75;;;2.22;;
9186;SDS011;7273;48.902;9.410;2022-12-07T08:32:46;6.90;;;1.50;;
9186;SDS011;7273;48.902;9.410;2022-12-07T08:35:13;1.40;;;0.70;;
9186;SDS011;7273;48.902;9.410;2022-12-07T08:37:38;3.28;;;2.08;;
9186;SDS011;7273;48.902;9.410;2022-12-07T08:40:04;5.93;;;1.50;;
9186;SDS011;7273;48.902;9.410;2022-12-07T08:42:32;2.63;;;1.38;;
9186;SDS011;7273;48.902;9.410;2022-12-07T08:45:05;4.22;;;1.92;;
9186;SDS011;7273;48.902;9.410;2022-12-07T08:47:33;2.70;;;1.33;;
9186;SDS011;7273;48.902;9.410;2022-12-07T08:50:01;3.17;;;1.67;;
9186;SDS011;7273;48.902;9.410;2022-12-07T08:52:31;2.78;;;1.33;;
9186;SDS011;7273;48.902;9.410;2022-12-07T08:54:58;4.85;;;1.83;;
9186;SDS011;7273;48.902;9.410;2022-12-07T08:57:26;4.57;;;1.75;;
9186;SDS011;7273;48.902;9.410;2022-12-07T08:59:53;2.00;;;0.88;;
9186;SDS011;7273;48.902;9.410;2022-12-07T09:02:19;3.55;;;1.60;;
9186;SDS011;7273;48.902;9.410;2022-12-07T09:04:44;2.53;;;0.95;;
9186;SDS011;7273;48.902;9.410;2022-12-07T09:07:10;2.88;;;1.27;;
9186;SDS011;7273;48.902;9.410;2022-12-07T09:09:35;2.20;;;1.42;;
9186;SDS011;7273;48.902;9.410;2022-12-07T09:12:01;2.15;;;0.77;;
9186;SDS011;7273;48.902;9.410;2022-12-07T09:14:26;3.00;;;1.48;;
9186;SDS011;7273;48.902;9.410;2022-12-07T09:16:52;3.85;;;1.40;;
9186;SDS011;7273;48.902;9.410;2022-12-07T09:19:17;3.33;;;1.52;;
9186;SDS011;7273;48.902;9.410;2022-12-07T09:21:43;1.38;;;0.65;;
9186;SDS011;7273;48.902;9.410;2022-12-07T09:24:08;3.67;;;1.52;;
9186;SDS011;7273;48.902;9.410;2022-12-07T09:26:34;2.33;;;1.10;;
9186;SDS011;7273;48.902;9.410;2022-12-07T09:29:00;2.25;;;1.17;;
9186;SDS011;7273;48.902;9.410;2022-12-07T09:31:27;4.45;;;1.83;;
9186;SDS011;7273;48.902;9.410;2022-12-07T09:33:55;2.72;;;1.05;;
9186;SDS011;7273;48.902;9.410;2022-12-07T09:36:22;2.97;;;1.58;;
9186;SDS011;7273;48.902;9.410;2022-12-07T09:38:48;4.05;;;1.55;;
9186;SDS011;7273;48.902;9.410;2022-12-07T09:41:13;1.77;;;0.70;;
9186;SDS011;7273;48.902;9.410;2022-12-07T09:43:40;8.30;;;2.80;;
9186;SDS011;7273;48.902;9.410;2022-12-07T09:46:08;2.95;;;1.25;;
9186;SDS011;7273;48.902;9.410;2022-12-07T09:48:39;2.47;;;0.88;;
9186;SDS011;7273;48.902;9.410;2022-12-07T09:51:20;2.55;;;1.58;;
9186;SDS011;7273;48.902;9.410;2022-12-07T09:53:48;5.60;;;2.15;;
9186;SDS011;7273;48.902;9.410;2022-12-07T09:56:15;4.20;;;1.80;;
9186;SDS011;7273;48.902;9.410;2022-12-07T09:58:42;3.47;;;1.73;;
9186;SDS011;7273;48.902;9.410;2022-12-07T10:03:37;4.57;;;1.67;;
9186;SDS011;7273;48.902;9.410;2022-12-07T10:06:04;2.38;;;1.10;;
9186;SDS011;7273;48.902;9.410;2022-12-07T10:08:31;2.80;;;1.02;;
9186;SDS011;7273;48.902;9.410;2022-12-07T10:10:57;5.43;;;1.48;;
9186;SDS011;7273;48.902;9.410;2022-12-07T10:16:02;2.13;;;1.02;;
9186;SDS011;7273;48.902;9.410;2022-12-07T10:18:32;2.55;;;1.15;;
9186;SDS011;7273;48.902;9.410;2022-12-07T10:23:34;4.07;;;2.08;;
9186;SDS011;7273;48.902;9.410;2022-12-07T10:26:18;3.88;;;1.73;;
9186;SDS011;7273;48.902;9.410;2022-12-07T10:28:46;7.47;;;2.03;;
9186;SDS011;7273;48.902;9.410;2022-12-07T10:31:17;1.65;;;0.68;;
9186;SDS011;7273;48.902;9.410;2022-12-07T10:36:24;2.47;;;0.90;;
9186;SDS011;7273;48.902;9.410;2022-12-07T10:38:58;6.38;;;1.55;;
9186;SDS011;7273;48.902;9.410;2022-12-07T10:41:26;4.93;;;2.05;;
9186;SDS011;7273;48.902;9.410;2022-12-07T10:43:53;3.38;;;1.25;;
9186;SDS011;7273;48.902;9.410;2022-12-07T11:00:55;2.03;;;0.80;;
9186;SDS011;7273;48.902;9.410;2022-12-07T11:06:39;2.35;;;1.65;;
9186;SDS011;7273;48.902;9.410;2022-12-07T11:15:31;2.15;;;0.98;;
9186;SDS011;7273;48.902;9.410;2022-12-07T11:26:22;2.58;;;0.98;;
9186;SDS011;7273;48.902;9.410;2022-12-07T11:31:24;2.58;;;0.95;;
9186;SDS011;7273;48.902;9.410;2022-12-07T11:36:51;3.17;;;0.95;;
9186;SDS011;7273;48.902;9.410;2022-12-07T11:41:44;4.18;;;1.55;;
9186;SDS011;7273;48.902;9.410;2022-12-07T11:47:00;2.90;;;1.05;;
9186;SDS011;7273;48.902;9.410;2022-12-07T11:52:02;2.33;;;1.10;;
9186;SDS011;7273;48.902;9.410;2022-12-07T11:54:32;7.43;;;2.45;;
9186;SDS011;7273;48.902;9.410;2022-12-07T11:57:09;1.98;;;1.08;;
9186;SDS011;7273;48.902;9.410;2022-12-07T11:59:45;2.55;;;1.05;;
9186;SDS011;7273;48.902;9.410;2022-12-07T12:02:18;4.90;;;1.85;;
9186;SDS011;7273;48.902;9.410;2022-12-07T12:04:58;2.95;;;1.55;;
9186;SDS011;7273;48.902;9.410;2022-12-07T12:07:31;3.13;;;1.42;;
9186;SDS011;7273;48.902;9.410;2022-12-07T12:10:16;2.75;;;1.27;;
9186;SDS011;7273;48.902;9.410;2022-12-07T12:21:34;1.30;;;0.73;;
9186;SDS011;7273;48.902;9.410;2022-12-07T12:24:02;2.63;;;0.98;;
9186;SDS011;7273;48.902;9.410;2022-12-07T12:26:36;6.45;;;1.92;;
9186;SDS011;7273;48.902;9.410;2022-12-07T12:29:04;3.67;;;1.88;;
9186;SDS011;7273;48.902;9.410;2022-12-07T12:31:37;1.77;;;1.20;;
9186;SDS011;7273;48.902;9.410;2022-12-07T12:34:29;2.47;;;1.02;;
9186;SDS011;7273;48.902;9.410;2022-12-07T12:36:58;3.15;;;1.55;;
9186;SDS011;7273;48.902;9.410;2022-12-07T12:39:24;2.67;;;1.27;;
9186;SDS011;7273;48.902;9.410;2022-12-07T12:41:51;2.88;;;1.42;;
9186;SDS011;7273;48.902;9.410;2022-12-07T12:46:52;3.00;;;1.15;;
9186;SDS011;7273;48.902;9.410;2022-12-07T12:54:35;1.00;;;0.57;;
9186;SDS011;7273;48.902;9.410;2022-12-07T12:57:36;2.50;;;1.52;;
9186;SDS011;7273;48.902;9.410;2022-12-07T12:59:58;3.40;;;1.70;;
9186;SDS011;7273;48.902;9.410;2022-12-07T13:02:26;1.90;;;0.80;;
9186;SDS011;7273;48.902;9.410;2022-12-07T13:13:00;4.55;;;2.60;;
9186;SDS011;7273;48.902;9.410;2022-12-07T13:20:57;2.75;;;1.38;;
9186;SDS011;7273;48.902;9.410;2022-12-07T13:26:27;1.75;;;1.10;;
9186;SDS011;7273;48.902;9.410;2022-12-07T13:31:39;2.53;;;1.08;;
9186;SDS011;7273;48.902;9.410;2022-12-07T13:36:55;2.22;;;1.08;;
9186;SDS011;7273;48.902;9.410;2022-12-07T13:39:22;26.55;;;1.10;;
9186;SDS011;7273;48.902;9.410;2022-12-07T13:41:53;3.70;;;1.23;;
9186;SDS011;7273;48.902;9.410;2022-12-07T13:44:24;2.70;;;1.23;;
9186;SDS011;7273;48.902;9.410;2022-12-07T13:49:32;1.70;;;0.77;;
9186;SDS011;7273;48.902;9.410;2022-12-07T13:52:11;1.52;;;0.98;;
9186;SDS011;7273;48.902;9.410;2022-12-07T13:54:43;1.95;;;0.82;;
9186;SDS011;7273;48.902;9.410;2022-12-07T13:57:10;1.75;;;1.13;;
9186;SDS011;7273;48.902;9.410;2022-12-07T13:59:36;1.77;;;1.23;;
9186;SDS011;7273;48.902;9.410;2022-12-07T14:02:16;2.90;;;1.60;;
9186;SDS011;7273;48.902;9.410;2022-12-07T14:04:51;3.40;;;1.38;;
9186;SDS011;7273;48.902;9.410;2022-12-07T14:07:29;2.75;;;1.45;;
9186;SDS011;7273;48.902;9.410;2022-12-07T14:09:59;4.85;;;1.75;;
9186;SDS011;7273;48.902;9.410;2022-12-07T14:12:44;2.83;;;1.15;;
9186;SDS011;7273;48.902;9.410;2022-12-07T14:15:29;2.33;;;0.98;;
9186;SDS011;7273;48.902;9.410;2022-12-07T14:17:57;1.63;;;0.70;;
9186;SDS011;7273;48.902;9.410;2022-12-07T14:20:35;3.03;;;1.40;;
9186;SDS011;7273;48.902;9.410;2022-12-07T14:23:05;2.00;;;1.02;;
9186;SDS011;7273;48.902;9.410;2022-12-07T14:25:49;1.90;;;0.80;;
9186;SDS011;7273;48.902;9.410;2022-12-07T14:28:30;3.08;;;1.35;;
9186;SDS011;7273;48.902;9.410;2022-12-07T14:30:57;4.40;;;1.90;;
9186;SDS011;7273;48.902;9.410;2022-12-07T14:33:23;2.67;;;0.98;;
9186;SDS011;7273;48.902;9.410;2022-12-07T14:35:50;1.00;;;0.68;;
9186;SDS011;7273;48.902;9.410;2022-12-07T14:38:20;6.38;;;1.70;;
9186;SDS011;7273;48.902;9.410;2022-12-07T14:40:47;2.00;;;0.82;;
9186;SDS011;7273;48.902;9.410;2022-12-07T14:43:14;4.82;;;1.10;;
9186;SDS011;7273;48.902;9.410;2022-12-07T14:45:41;0.80;;;0.52;;
9186;SDS011;7273;48.902;9.410;2022-12-07T14:48:07;1.77;;;0.95;;
9186;SDS011;7273;48.902;9.410;2022-12-07T14:50:39;1.40;;;0.88;;
9186;SDS011;7273;48.902;9.410;2022-12-07T14:53:15;1.55;;;1.45;;
9186;SDS011;7273;48.902;9.410;2022-12-07T14:55:42;2.30;;;1.27;;
9186;SDS011;7273;48.902;9.410;2022-12-07T14:58:12;1.63;;;1.00;;
9186;SDS011;7273;48.902;9.410;2022-12-07T15:00:39;1.88;;;1.02;;
9186;SDS011;7273;48.902;9.410;2022-12-07T15:03:05;1.83;;;1.40;;
9186;SDS011;7273;48.902;9.410;2022-12-07T15:05:30;1.98;;;1.13;;
9186;SDS011;7273;48.902;9.410;2022-12-07T15:07:55;3.05;;;1.25;;
9186;SDS011;7273;48.902;9.410;2022-12-07T15:10:22;1.83;;;1.40;;
9186;SDS011;7273;48.902;9.410;2022-12-07T15:12:54;2.53;;;1.58;;
9186;SDS011;7273;48.902;9.410;2022-12-07T15:15:19;1.52;;;1.05;;
9186;SDS011;7273;48.902;9.410;2022-12-07T15:17:45;1.98;;;1.67;;
9186;SDS011;7273;48.902;9.410;2022-12-07T15:20:14;6.03;;;1.30;;
9186;SDS011;7273;48.902;9.410;2022-12-07T15:22:41;2.20;;;1.05;;
9186;SDS011;7273;48.902;9.410;2022-12-07T15:25:08;3.28;;;1.40;;
9186;SDS011;7273;48.902;9.410;2022-12-07T15:27:34;0.85;;;0.68;;
9186;SDS011;7273;48.902;9.410;2022-12-07T15:29:59;1.35;;;1.10;;
9186;SDS011;7273;48.902;9.410;2022-12-07T15:32:25;4.18;;;2.35;;
9186;SDS011;7273;48.902;9.410;2022-12-07T15:34:50;2.60;;;1.35;;
9186;SDS011;7273;48.902;9.410;2022-12-07T15:37:15;2.60;;;1.10;;
9186;SDS011;7273;48.902;9.410;2022-12-07T15:39:41;1.92;;;1.10;;
9186;SDS011;7273;48.902;9.410;2022-12-07T15:42:07;2.60;;;1.42;;
9186;SDS011;7273;48.902;9.410;2022-12-07T15:44:33;1.50;;;0.77;;
9186;SDS011;7273;48.902;9.410;2022-12-07T15:47:16;1.98;;;1.50;;
9186;SDS011;7273;48.902;9.410;2022-12-07T15:49:42;1.17;;;0.82;;
9186;SDS011;7273;48.902;9.410;2022-12-07T15:52:07;0.52;;;0.52;;
9186;SDS011;7273;48.902;9.410;2022-12-07T15:54:33;3.00;;;1.67;;
9186;SDS011;7273;48.902;9.410;2022-12-07T15:56:59;1.77;;;0.90;;
9186;SDS011;7273;48.902;9.410;2022-12-07T15:59:25;1.20;;;0.52;;
9186;SDS011;7273;48.902;9.410;2022-12-07T16:01:51;1.35;;;0.80;;
9186;SDS011;7273;48.902;9.410;2022-12-07T16:04:17;2.83;;;1.48;;
9186;SDS011;7273;48.902;9.410;2022-12-07T16:06:42;1.35;;;1.13;;
9186;SDS011;7273;48.902;9.410;2022-12-07T16:09:08;11.30;;;2.58;;
9186;SDS011;7273;48.902;9.410;2022-12-07T16:11:33;1.85;;;1.05;;
9186;SDS011;7273;48.902;9.410;2022-12-07T16:13:59;4.68;;;1.10;;
9186;SDS011;7273;48.902;9.410;2022-12-07T16:16:25;7.47;;;1.98;;
9186;SDS011;7273;48.902;9.410;2022-12-07T16:18:51;3.63;;;1.85;;
9186;SDS011;7273;48.902;9.410;2022-12-07T16:21:17;2.53;;;0.60;;
9186;SDS011;7273;48.902;9.410;2022-12-07T16:23:42;2.65;;;1.20;;
9186;SDS011;7273;48.902;9.410;2022-12-07T16:26:12;2.13;;;1.20;;
9186;SDS011;7273;48.902;9.410;2022-12-07T16:28:39;5.15;;;1.48;;
9186;SDS011;7273;48.902;9.410;2022-12-07T16:31:06;1.75;;;0.55;;
9186;SDS011;7273;48.902;9.410;2022-12-07T16:33:37;8.32;;;1.27;;
9186;SDS011;7273;48.902;9.410;2022-12-07T16:36:04;1.45;;;1.35;;
9186;SDS011;7273;48.902;9.410;2022-12-07T16:38:31;2.90;;;1.55;;
9186;SDS011;7273;48.902;9.410;2022-12-07T16:40:56;2.20;;;1.83;;
9186;SDS011;7273;48.902;9.410;2022-12-07T16:43:22;2.33;;;1.42;;
9186;SDS011;7273;48.902;9.410;2022-12-07T16:45:48;0.70;;;0.40;;
9186;SDS011;7273;48.902;9.410;2022-12-07T16:48:14;1.58;;;0.98;;
9186;SDS011;7273;48.902;9.410;2022-12-07T16:50:41;2.75;;;1.55;;
9186;SDS011;7273;48.902;9.410;2022-12-07T16:53:07;3.53;;;1.35;;
9186;SDS011;7273;48.902;9.410;2022-12-07T16:55:37;5.07;;;2.60;;
9186;SDS011;7273;48.902;9.410;2022-12-07T16:58:07;3.95;;;1.95;;
9186;SDS011;7273;48.902;9.410;2022-12-07T17:00:33;6.45;;;1.67;;
9186;SDS011;7273;48.902;9.410;2022-12-07T17:02:59;3.63;;;1.67;;
9186;SDS011;7273;48.902;9.410;2022-12-07T17:05:25;6.88;;;3.25;;
9186;SDS011;7273;48.902;9.410;2022-12-07T17:07:53;3.03;;;1.35;;
9186;SDS011;7273;48.902;9.410;2022-12-07T17:10:18;1.33;;;0.95;;
9186;SDS011;7273;48.902;9.410;2022-12-07T17:12:44;2.40;;;1.30;;
9186;SDS011;7273;48.902;9.410;2022-12-07T17:15:09;3.08;;;1.67;;
9186;SDS011;7273;48.902;9.410;2022-12-07T17:17:56;5.75;;;2.30;;
9186;SDS011;7273;48.902;9.410;2022-12-07T17:20:24;3.35;;;1.88;;
9186;SDS011;7273;48.902;9.410;2022-12-07T17:22:51;3.58;;;1.40;;
9186;SDS011;7273;48.902;9.410;2022-12-07T17:25:17;6.45;;;2.13;;
9186;SDS011;7273;48.902;9.410;2022-12-07T17:27:43;10.65;;;4.32;;
9186;SDS011;7273;48.902;9.410;2022-12-07T17:30:09;7.20;;;3.03;;
9186;SDS011;7273;48.902;9.410;2022-12-07T17:32:37;2.35;;;1.20;;
9186;SDS011;7273;48.902;9.410;2022-12-07T17:35:02;2.05;;;1.85;;
9186;SDS011;7273;48.902;9.410;2022-12-07T17:37:29;5.10;;;1.48;;
9186;SDS011;7273;48.902;9.410;2022-12-07T17:39:55;3.05;;;1.02;;
9186;SDS011;7273;48.902;9.410;2022-12-07T17:42:22;2.13;;;1.23;;
9186;SDS011;7273;48.902;9.410;2022-12-07T17:45:11;3.75;;;2.72;;